Deep Waters, Anguilla

4:45 AM AST on April 30, 2017 (GMT -0400)
The Valley | | Change Station

Elev 92 ft 18.21 °N, 63.05 °W | Updated 2 seconds ago

Rain
Rain
73.3 °F
Feels Like 72 °F
N
4.8
Wind Variable Wind from ENE

Today
High -- | Low -- °F
--% Chance of Precip.
Yesterday
High -- | Low -- °F
Precip. -- in
Pressure 30.04 in
Visibility 6.2 miles
Clouds Few 1800 ft
Overcast 3500 ft
Heat Index 72 °F
Dew Point 69 °F
Humidity 86%
Rainfall 0.11 in
Snow Depth Not available.
5:45 AM 6:33 PM
Waxing Crescent, 21% visible
METAR TNCM 300800Z 06013KT 9999 -RA FEW018 OVC035 23/23 Q1017 A3003 RERA
Pressure 30.04 in
Visibility 6.2 miles
Clouds Few 1800 ft
Overcast 3500 ft
Heat Index 72 °F
Dew Point 69 °F
Humidity 86%
Rainfall 0.11 in
Snow Depth Not available.
5:45 AM 6:33 PM
Waxing Crescent, 21% visible
METAR TNCM 300800Z 06013KT 9999 -RA FEW018 OVC035 23/23 Q1017 A3003 RERA

Get Severe Weather Alerts

Thanks for signing up!

Be on the lookout for a verification email in your inbox.

You'll start receiving the daily forecast at 8 AM.

×

10-Day Weather Forecast

No radar image for this location.
×

Almanac

Astronomy

Apr. 30, 2017 Rise Set
Actual Time
Civil Twilight
Nautical Twilight
Astronomical Twilight
Moon
Length of Visible Light
Length of Day
Tomorrow will be .
, % of the Moon is Illuminated

Today's Extremes

Country Highs Country Lows

Community

WunderPhotos

WunderBlog® & News

Nearby

Air Quality

  Air Quality AQ Index Pollutant
Not available.

Snow Depth

Station Depth Elevation

Earthquake Activity

City Distance Mag. Time & Date
Minimum magnitude displayed is 2.5.

Coastal Water Temperatures

Place Temperature

Stations

Nearby Weather Stations

Station Location Temp. Windchill Dew Point Humidity Wind Precip. Elev Updated Type